Latest Weather Observations for Mackay

IDQ60801

Issued at 11:02 pm EST Tuesday 28 January 2020 (issued every 10 minutes, with the page automatically refreshed every 10 minutes)

About weather observations | Map of weather stations | Latest weather observations for QLD | Other Formats
Station Details ID: 033119 Name: MACKAY M.O Lat: -21.12 Lon: 149.22 Height: 30.26 m
Data from the previous 72 hours. | See also: Recent months at Mackay
Date/Time
EST
Temp
°C
App
Temp
°C
Dew
Point
°C
Rel
Hum
%
Delta-T
°C
Wind Press
QNH
hPa
Press
MSL
hPa
Rain since
9am
mm
Dir  Spd
km/h
Gust
km/h
Spd
kts
Gust
kts
28/11:00pm 25.2 29.3 24.5 96 0.5 NNE 11 20 6 11 1011.9 1011.7 7.4
28/10:30pm 25.1 28.6 24.2 95 0.6 NNE 13 22 7 12 1011.9 1011.7 7.2
28/10:00pm 25.0 27.7 24.1 95 0.6 NNE 17 28 9 15 1011.6 1011.4 7.2
28/09:30pm 25.4 28.5 24.2 93 0.8 NE 15 30 8 16 1011.5 1011.3 6.8
28/09:00pm 25.6 28.8 24.4 93 0.8 NE 15 26 8 14 1011.2 1011.0 6.8
28/08:30pm 25.6 28.5 24.4 93 0.8 ENE 17 32 9 17 1011.0 1010.8 6.6
28/08:00pm 25.7 28.4 24.7 94 0.7 ENE 19 32 10 17 1010.8 1010.6 6.6
28/07:30pm 25.6 27.1 24.4 93 0.8 ENE 24 35 13 19 1010.2 1010.0 6.4
28/07:00pm 26.1 26.9 24.5 91 1.1 E 28 43 15 23 1009.7 1009.5 6.2
28/06:30pm 25.7 27.5 24.3 92 1.0 E 22 33 12 18 1009.4 1009.2 5.8
28/06:00pm 26.0 26.9 23.9 88 1.4 E 26 37 14 20 1009.0 1008.8 5.4
28/05:30pm 26.4 29.3 23.9 86 1.7 ENE 15 24 8 13 1008.7 1008.5 5.2
28/05:00pm 26.8 29.7 24.5 87 1.6 ENE 17 26 9 14 1008.4 1008.2 5.2
28/04:30pm 27.0 29.9 24.5 86 1.7 E 17 26 9 14 1008.2 1008.0 5.2
28/04:00pm 27.1 30.7 24.4 85 1.9 ENE 13 22 7 12 1008.2 1008.0 5.2
28/03:30pm 26.8 30.1 24.5 87 1.6 ENE 15 20 8 11 1008.2 1008.0 5.2
28/03:00pm 26.8 30.6 24.1 85 1.9 ENE 11 17 6 9 1008.4 1008.2 5.2
28/02:30pm 27.5 32.7 25.7 90 1.3 NNE 9 15 5 8 1008.5 1008.3 5.2
28/02:00pm 27.0 31.4 25.6 92 1.0 NE 13 20 7 11 1008.9 1008.7 5.2
28/01:30pm 25.7 29.4 23.9 90 1.2 NNE 11 19 6 10 1009.3 1009.1 5.2
28/01:00pm 26.6 30.2 24.4 88 1.5 NNE 13 20 7 11 1009.8 1009.6 2.8
28/12:30pm 28.8 33.7 25.2 81 2.5 NE 9 15 5 8 1009.8 1009.6 0.2
28/12:00pm 28.1 33.7 25.5 86 1.8 NNE 6 11 3 6 1010.1 1009.9 0.2
28/11:30am 27.7 34.0 26.5 93 0.9 NNW 6 9 3 5 1010.1 1009.9 0.0
28/11:00am 26.1 30.8 24.3 90 1.2 NW 7 11 4 6 1010.3 1010.1 0.0
28/10:30am 25.9 30.9 24.5 92 1.0 NNW 6 9 3 5 1010.4 1010.2 0.0
28/10:00am 25.3 29.9 24.1 93 0.8 NW 7 11 4 6 1010.4 1010.2 0.0
28/09:30am 25.5 30.0 24.6 95 0.6 NW 9 13 5 7 1010.3 1010.1 0.0
28/09:00am 24.9 28.7 24.0 95 0.6 NW 11 20 6 11 1010.2 1010.0 28.2
28/08:30am 25.2 29.3 24.0 93 0.8 WNW 9 15 5 8 1009.8 1009.6 27.4
28/08:00am 25.4 29.0 24.4 94 0.7 E 13 20 7 11 1009.7 1009.5 27.4
28/07:30am 24.8 29.4 24.1 96 0.5 SW 7 11 4 6 1009.4 1009.2 26.6
28/07:00am 24.7 28.7 23.8 95 0.6 WSW 9 13 5 7 1009.2 1009.0 26.6
28/06:30am 24.8 28.6 23.4 92 1.0 SSW 9 15 5 8 1008.9 1008.7 26.6
28/06:00am 26.7 30.6 24.2 86 1.7 ESE 11 19 6 10 1008.5 1008.3 26.6
28/05:30am 25.6 29.4 24.0 91 1.1 E 11 17 6 9 1008.1 1007.9 26.6
28/05:00am 24.1 26.6 23.2 95 0.6 SSW 15 20 8 11 1007.9 1007.7 26.6
28/04:30am 24.6 29.3 23.9 96 0.5 SSE 6 9 3 5 1007.9 1007.7 24.8
28/04:00am 24.4 27.1 23.5 95 0.6 SE 15 24 8 13 1007.9 1007.7 20.8
28/03:30am 23.1 24.4 21.7 92 0.9 E 17 35 9 19 1008.0 1007.8 20.2
28/03:00am 24.5 28.4 24.2 98 0.2 SW 11 17 6 9 1007.9 1007.7 15.0
28/02:30am 24.3 28.6 23.6 96 0.5 SSW 7 11 4 6 1008.3 1008.1 14.8
28/02:00am 24.3 29.8 23.4 95 0.6 CALM 0 0 0 0 1008.7 1008.5 14.4
28/01:30am 24.4 27.9 23.5 95 0.6 ESE 11 17 6 9 1009.2 1009.0 12.8
28/01:00am 24.7 29.3 24.2 97 0.3 SSE 7 15 4 8 1009.5 1009.3 12.6
28/12:30am 24.0 27.2 23.1 95 0.6 SE 11 19 6 10 1009.9 1009.7 11.8
28/12:00am 24.4 27.8 24.1 98 0.2 SSW 13 19 7 10 1010.2 1010.0 9.6
 
Date/Time
EST
Temp
°C
App
Temp
°C
Dew
Point
°C
Rel
Hum
%
Delta-T
°C
Wind Press
QNH
hPa
Press
MSL
hPa
Rain since
9am
mm
Dir  Spd
km/h
Gust
km/h
Spd
kts
Gust
kts
27/11:30pm 24.3 28.1 24.0 98 0.2 WSW 11 15 6 8 1010.5 1010.3 9.0
27/11:00pm 24.2 27.8 23.7 97 0.3 SW 11 13 6 7 1010.7 1010.5 8.2
27/10:30pm 24.4 28.5 23.9 97 0.3 SW 9 11 5 6 1010.8 1010.6 8.2
27/10:00pm 24.6 29.5 23.7 95 0.6 SW 4 9 2 5 1010.9 1010.7 8.0
27/09:30pm 24.7 30.4 23.7 94 0.7 CALM 0 0 0 0 1011.0 1010.8 7.8
27/09:00pm 24.6 29.7 23.4 93 0.8 E 2 6 1 3 1010.6 1010.4 7.2
27/08:30pm 24.4 28.5 23.2 93 0.8 SE 7 11 4 6 1010.4 1010.2 7.2
27/08:00pm 24.4 28.6 23.5 95 0.6 SE 7 13 4 7 1010.3 1010.1 7.0
27/07:30pm 24.2 28.3 23.2 94 0.7 SE 7 9 4 5 1010.0 1009.8 6.8
27/07:00pm 24.6 28.9 23.7 95 0.6 N 7 13 4 7 1009.6 1009.4 4.0
27/06:30pm 24.7 28.7 23.7 94 0.7 N 9 13 5 7 1009.0 1008.8 3.8
27/06:00pm 25.0 29.3 23.6 92 1.0 NNE 7 13 4 7 1008.7 1008.5 3.8
27/05:30pm 25.4 28.7 23.8 91 1.1 NNE 13 20 7 11 1008.4 1008.2 3.8
27/05:00pm 26.5 29.3 24.3 88 1.5 E 17 26 9 14 1008.1 1007.9 3.8
27/04:30pm 26.4 29.0 23.3 83 2.1 E 15 20 8 11 1008.0 1007.8 3.6
27/04:00pm 26.0 29.5 23.5 86 1.7 E 11 17 6 9 1008.0 1007.8 3.6
27/03:30pm 26.1 29.3 22.4 80 2.5 E 9 17 5 9 1008.2 1008.0 3.6
27/03:00pm 26.3 29.0 22.2 78 2.8 E 11 17 6 9 1008.3 1008.1 3.6
27/02:30pm 26.5 29.7 23.0 81 2.4 ESE 11 20 6 11 1008.4 1008.2 3.6
27/02:00pm 25.8 28.8 23.3 86 1.7 ESE 13 22 7 12 1008.7 1008.5 3.6
27/01:30pm 26.0 27.8 23.5 86 1.7 E 20 30 11 16 1009.1 1008.9 3.6
27/01:00pm 26.3 30.0 24.5 90 1.2 NE 13 22 7 12 1009.4 1009.2 3.4
27/12:30pm 26.6 30.6 24.4 88 1.5 NE 11 20 6 11 1009.7 1009.5 3.0
27/12:00pm 27.7 31.2 23.5 78 2.9 NE 11 20 6 11 1010.0 1009.8 0.2
27/11:30am 26.9 31.3 23.8 83 2.1 NNE 7 13 4 7 1010.1 1009.9 0.2
27/11:00am 26.7 30.4 24.5 88 1.5 NE 13 22 7 12 1010.3 1010.1 0.2
27/10:30am 26.1 29.5 24.0 88 1.4 NE 13 22 7 12 1010.4 1010.2 0.2
27/10:00am 26.1 30.5 24.5 91 1.1 NNE 9 19 5 10 1010.5 1010.3 0.2
27/09:30am 25.9 30.5 24.7 93 0.8 N 9 17 5 9 1010.5 1010.3 0.0
27/09:00am 25.8 29.9 24.0 90 1.2 N 9 19 5 10 1010.4 1010.2 40.2
27/08:30am 26.0 29.1 23.5 86 1.7 NNE 13 20 7 11 1010.3 1010.1 40.2
27/08:00am 27.2 30.6 24.7 86 1.7 NNE 15 24 8 13 1010.2 1010.0 40.2
27/07:30am 27.4 29.4 23.6 80 2.6 E 19 28 10 15 1009.8 1009.6 40.2
27/07:00am 27.0 29.6 23.9 83 2.1 E 17 28 9 15 1009.6 1009.4 40.2
27/06:30am 26.8 29.4 23.9 84 2.0 E 17 22 9 12 1009.2 1009.0 40.2
27/06:00am 26.4 28.6 23.9 86 1.7 E 19 26 10 14 1008.9 1008.7 40.2
27/05:30am 25.9 28.5 23.9 89 1.4 E 17 26 9 14 1008.5 1008.3 40.2
27/05:00am 24.6 29.3 24.3 98 0.2 SSE 7 15 4 8 1008.3 1008.1 40.2
27/04:30am 24.0 27.2 23.7 98 0.2 WSW 13 20 7 11 1008.0 1007.8 40.2
27/04:00am 24.1 28.1 23.8 98 0.2 WSW 9 13 5 7 1008.0 1007.8 40.2
27/03:30am 24.5 28.3 24.0 97 0.3 SSW 11 20 6 11 1008.0 1007.8 40.2
27/03:00am 24.7 28.7 24.4 98 0.2 S 11 17 6 9 1008.2 1008.0 40.2
27/02:30am 24.4 29.1 23.9 97 0.3 N 6 9 3 5 1008.4 1008.2 40.2
27/02:00am 24.7 28.7 24.4 98 0.2 WNW 11 15 6 8 1008.7 1008.5 22.0
27/01:30am 24.8 28.5 24.5 98 0.2 SSW 13 17 7 9 1009.0 1008.8 20.8
27/01:00am 24.8 28.4 24.3 97 0.3 SSW 13 19 7 10 1009.6 1009.4 20.8
27/12:30am 24.8 28.5 24.5 98 0.2 SSW 13 15 7 8 1010.1 1009.9 20.8
27/12:00am 24.5 27.5 24.0 97 0.3 SSW 15 22 8 12 1010.4 1010.2 20.0
 
Date/Time
EST
Temp
°C
App
Temp
°C
Dew
Point
°C
Rel
Hum
%
Delta-T
°C
Wind Press
QNH
hPa
Press
MSL
hPa
Rain since
9am
mm
Dir  Spd
km/h
Gust
km/h
Spd
kts
Gust
kts
26/11:30pm 24.8 29.1 24.3 97 0.3 SW 9 11 5 6 1010.6 1010.4 20.0
26/11:00pm 24.6 28.6 23.7 95 0.6 SSW 9 11 5 6 1010.8 1010.6 20.0
26/10:30pm 24.8 29.0 23.4 92 1.0 S 7 9 4 5 1011.0 1010.8 20.0
26/10:00pm 24.9 28.6 22.6 87 1.5 E 7 11 4 6 1011.0 1010.8 20.0
26/09:30pm 25.7 30.0 23.7 89 1.4 ENE 7 11 4 6 1011.2 1011.0 19.4
26/09:00pm 25.9 30.3 23.4 86 1.7 ESE 6 9 3 5 1010.8 1010.6 19.2
26/08:30pm 25.9 30.1 23.4 86 1.7 E 7 13 4 7 1010.5 1010.3 19.2
26/08:00pm 25.2 29.3 23.3 89 1.3 E 7 9 4 5 1010.2 1010.0 19.2
26/07:30pm 24.9 29.0 23.3 91 1.1 E 7 11 4 6 1010.0 1009.8 19.2
26/07:00pm 25.0 30.5 24.1 95 0.6 NE 2 6 1 3 1009.5 1009.3 19.2
26/06:30pm 25.1 31.2 24.4 96 0.5 CALM 0 0 0 0 1009.1 1008.9 19.2
26/06:00pm 25.2 31.3 24.5 96 0.5 CALM 0 0 0 0 1008.9 1008.7 19.2
26/05:30pm 25.0 31.0 24.3 96 0.5 CALM 0 6 0 3 1008.6 1008.4 19.2
26/05:00pm 25.0 29.9 24.3 96 0.5 N 6 7 3 4 1008.5 1008.3 19.2
26/04:30pm 24.8 29.3 23.9 95 0.6 N 7 11 4 6 1008.5 1008.3 18.0
26/04:00pm 25.4 30.5 24.7 96 0.5 N 6 11 3 6 1008.6 1008.4 14.4
26/03:30pm 25.1 29.0 24.2 95 0.6 N 11 17 6 9 1008.9 1008.7 14.4
26/03:00pm 25.4 29.8 24.5 95 0.6 NE 9 17 5 9 1009.1 1008.9 14.2
26/02:30pm 25.3 29.8 24.6 96 0.5 NNE 9 17 5 9 1009.3 1009.1 12.4
26/02:00pm 25.3 29.4 24.6 96 0.5 NNE 11 19 6 10 1009.6 1009.4 11.6
26/01:30pm 24.9 27.8 23.9 94 0.7 ENE 15 20 8 11 1010.0 1009.8 11.4
26/01:00pm 25.4 29.5 24.5 95 0.6 ENE 11 19 6 10 1010.2 1010.0 11.4
26/12:30pm 25.5 29.4 24.3 93 0.8 SSW 11 15 6 8 1010.3 1010.1 10.4
26/12:00pm 25.4 29.2 24.7 96 0.5 SSW 13 17 7 9 1010.5 1010.3 10.4
26/11:30am 25.1 28.8 24.6 97 0.3 SSW 13 17 7 9 1010.7 1010.5 10.4
26/11:00am 25.0 28.8 24.7 98 0.2 SW 13 19 7 10 1011.0 1010.8 10.2
26/10:30am 24.7 28.3 24.4 98 0.2 WSW 13 17 7 9 1011.4 1011.2 9.6
26/10:00am 24.5 28.8 24.2 98 0.2 WNW 9 13 5 7 1011.6 1011.4 2.6
26/09:30am 24.4 28.7 24.2 99 0.1 WSW 9 15 5 8 1011.2 1011.0 0.4
26/09:00am 24.1 27.8 23.9 99 0.1 SW 11 15 6 8 1011.1 1010.9 111.6
26/08:30am 23.8 27.3 23.6 99 0.1 WSW 11 13 6 7 1011.0 1010.8 109.6
26/08:00am 23.6 27.0 23.4 99 0.1 SW 11 15 6 8 1010.9 1010.7 107.2
26/07:30am 23.4 27.0 23.1 98 0.2 WNW 9 15 5 8 1010.9 1010.7 101.8
26/07:00am 23.6 27.2 23.1 97 0.3 NNW 9 17 5 9 1010.7 1010.5 91.4
26/06:30am 24.1 27.0 23.8 98 0.2 NNW 15 22 8 12 1010.2 1010.0 63.6
26/06:00am 24.1 27.7 23.8 98 0.2 SSW 11 15 6 8 1009.6 1009.4 53.2
26/05:30am 24.1 26.9 23.6 97 0.3 SW 15 20 8 11 1009.0 1008.8 51.8
26/05:00am 24.2 27.0 23.7 97 0.3 SW 15 19 8 10 1008.9 1008.7 51.8
26/04:30am 24.5 28.9 23.8 96 0.5 WSW 7 11 4 6 1008.6 1008.4 51.8
26/04:00am 24.7 29.2 24.0 96 0.5 WNW 7 11 4 6 1008.6 1008.4 51.4
26/03:30am 25.0 29.6 24.1 95 0.6 WNW 7 9 4 5 1008.7 1008.5 50.2
26/03:00am 25.0 29.2 24.1 95 0.6 W 9 15 5 8 1008.7 1008.5 49.2
26/02:30am 25.2 29.5 24.2 94 0.7 ENE 9 15 5 8 1008.7 1008.5 48.8
26/02:00am 25.0 28.3 24.5 97 0.3 ENE 15 24 8 13 1008.8 1008.6 46.0
26/01:30am 24.5 28.8 24.2 98 0.2 NW 9 17 5 9 1009.2 1009.0 44.8
26/01:00am 24.5 28.6 24.0 97 0.3 WSW 9 17 5 9 1009.4 1009.2 43.2
26/12:30am 24.9 29.5 24.2 96 0.5 SW 7 11 4 6 1009.9 1009.7 43.2
26/12:00am 25.1 30.0 24.4 96 0.5 WSW 6 11 3 6 1010.1 1009.9 43.2
 
Date/Time
EST
Temp
°C
App
Temp
°C
Dew
Point
°C
Rel
Hum
%
Delta-T
°C
Wind Press
QNH
hPa
Press
MSL
hPa
Rain since
9am
mm
Dir  Spd
km/h
Gust
km/h
Spd
kts
Gust
kts
25/11:30pm 25.4 31.1 24.4 94 0.7 S 2 6 1 3 1010.4 1010.2 43.2

Other formats

Comma delimited format used in spreadsheet applications
http://www.bom.gov.au/fwo/IDQ60801/IDQ60801.94367.axf

JavaScript Object Notation format (JSON) in row-major order
http://www.bom.gov.au/fwo/IDQ60801/IDQ60801.94367.json

Data quality

Most of these data are generated automatically and are frequently updated. Quality checks on data are not normally performed. It is possible for incorrect values to appear. Refer to information at About Latest Weather Observations and please check the disclaimer before using these data.